Time;durP1;ratioP1;P1;durP2;ratioP2;P2;SDS_P1;SDS_P2;PMS_P1;PMS_P2;Temp;Humidity;BMP_temperature;BMP_pressure;BME280_temperature;BME280_humidity;BME280_pressure;Samples;Min_cycle;Max_cycle;Signal;HPM_P1;HPM_P2
2022/11/06 00:00:12;;;;;;;15.47;11.77;;;3.70;99.90;;;;;;5017113;28;20178;-85
2022/11/06 00:02:38;;;;;;;15.77;12.10;;;3.80;99.90;;;;;;5016841;28;20182;-85
2022/11/06 00:07:50;;;;;;;14.20;11.43;;;3.90;99.90;;;;;;5049831;28;20190;-85
2022/11/06 00:10:19;;;;;;;14.23;11.03;;;3.90;99.90;;;;;;5033040;28;20278;-85
2022/11/06 00:12:45;;;;;;;17.60;12.43;;;3.90;99.90;;;;;;5017001;28;20198;-85
2022/11/06 00:15:11;;;;;;;15.83;11.50;;;3.90;99.90;;;;;;5033529;28;20174;-85
2022/11/06 00:17:37;;;;;;;16.73;13.60;;;3.90;99.90;;;;;;5016656;28;20189;-85
2022/11/06 00:20:05;;;;;;;15.20;12.20;;;3.80;99.90;;;;;;5034131;28;20179;-85
2022/11/06 00:22:35;;;;;;;17.20;12.97;;;3.70;99.90;;;;;;5033962;28;20190;-85
2022/11/06 00:25:03;;;;;;;15.53;11.73;;;3.70;99.90;;;;;;5017902;28;20194;-85
2022/11/06 00:27:28;;;;;;;16.07;12.40;;;3.70;99.90;;;;;;5016583;28;20193;-85
2022/11/06 00:29:54;;;;;;;18.47;14.03;;;3.70;99.90;;;;;;5015104;28;20186;-85
2022/11/06 00:32:20;;;;;;;15.90;13.07;;;3.70;99.90;;;;;;5016341;28;20248;-85
2022/11/06 00:34:47;;;;;;;17.07;12.27;;;3.80;99.90;;;;;;5016340;28;20256;-85
2022/11/06 00:37:13;;;;;;;16.93;12.40;;;3.80;99.90;;;;;;5049058;28;20293;-85
2022/11/06 00:39:39;;;;;;;16.83;12.73;;;3.70;99.90;;;;;;5032318;28;20185;-85
2022/11/06 00:42:05;;;;;;;14.47;11.23;;;3.70;99.90;;;;;;5016250;28;20178;-85
2022/11/06 00:44:31;;;;;;;15.67;11.80;;;3.70;99.90;;;;;;5016406;28;20209;-85
2022/11/06 00:46:56;;;;;;;14.63;11.13;;;3.60;99.90;;;;;;5032667;28;20175;-85
2022/11/06 00:49:22;;;;;;;13.07;10.83;;;3.60;99.90;;;;;;5015963;28;20174;-85
2022/11/06 00:51:48;;;;;;;13.97;11.13;;;3.60;99.90;;;;;;5016056;28;20224;-85
2022/11/06 00:54:14;;;;;;;13.83;11.30;;;3.60;99.90;;;;;;5015882;28;20205;-85
2022/11/06 00:56:41;;;;;;;15.60;11.50;;;3.60;99.90;;;;;;5032270;28;20221;-85
2022/11/06 00:59:12;;;;;;;15.83;11.03;;;3.50;99.90;;;;;;5033870;28;20175;-85
2022/11/06 01:01:44;;;;;;;12.87;11.07;;;3.50;99.90;;;;;;5015931;28;20179;-85
2022/11/06 01:04:19;;;;;;;13.03;10.67;;;3.40;99.90;;;;;;5016067;28;20199;-85
2022/11/06 01:06:48;;;;;;;14.37;10.83;;;3.50;99.90;;;;;;5032196;28;20269;-85
2022/11/06 01:09:17;;;;;;;17.00;11.17;;;3.40;99.90;;;;;;5032198;28;20179;-85
2022/11/06 01:11:51;;;;;;;97.13;14.10;;;3.30;99.90;;;;;;5015879;28;20206;-85
2022/11/06 01:14:19;;;;;;;14.63;10.80;;;3.20;99.90;;;;;;5015624;28;20542;-85
2022/11/06 01:16:45;;;;;;;11.53;9.13;;;3.20;99.90;;;;;;5015853;28;20182;-85
2022/11/06 01:19:12;;;;;;;12.83;9.97;;;3.20;99.90;;;;;;5031895;28;20236;-85
2022/11/06 01:21:42;;;;;;;13.57;10.53;;;3.20;99.90;;;;;;5015599;28;20185;-85
2022/11/06 01:24:28;;;;;;;20.70;11.80;;;3.20;99.90;;;;;;5015341;28;20210;-85
2022/11/06 01:26:54;;;;;;;19.80;12.27;;;3.20;99.90;;;;;;5015705;28;20262;-85
2022/11/06 01:30:03;;;;;;;13.30;10.17;;;3.30;99.90;;;;;;5015680;28;20183;-85
2022/11/06 01:32:29;;;;;;;13.47;9.27;;;3.30;99.90;;;;;;5031897;28;20225;-85
2022/11/06 01:34:54;;;;;;;16.80;9.10;;;3.30;99.90;;;;;;5015403;28;20203;-85
2022/11/06 01:37:20;;;;;;;23.27;10.20;;;3.30;99.90;;;;;;5032006;28;20175;-85
2022/11/06 01:39:49;;;;;;;11.00;8.73;;;3.30;99.90;;;;;;5032088;28;20272;-85
2022/11/06 01:42:15;;;;;;;9.47;8.33;;;3.20;99.90;;;;;;5031820;28;20174;-85
2022/11/06 01:44:41;;;;;;;20.10;9.37;;;3.20;99.90;;;;;;5048529;28;20293;-85
2022/11/06 01:47:25;;;;;;;16.60;8.90;;;3.10;99.90;;;;;;5048225;28;20698;-85
2022/11/06 01:49:58;;;;;;;12.53;9.30;;;3.10;99.90;;;;;;5031692;28;20271;-85
2022/11/06 01:52:25;;;;;;;19.87;10.27;;;3.10;99.90;;;;;;5034307;28;20213;-85
2022/11/06 01:54:57;;;;;;;12.83;9.30;;;3.00;99.90;;;;;;5035789;28;20205;-85
2022/11/06 01:57:23;;;;;;;13.90;10.00;;;3.10;99.90;;;;;;5035780;28;20174;-85
2022/11/06 01:59:52;;;;;;;13.30;9.10;;;3.10;99.90;;;;;;5035700;28;20178;-85
2022/11/06 02:02:18;;;;;;;11.43;8.27;;;3.20;99.90;;;;;;5052621;28;20175;-85
2022/11/06 02:04:47;;;;;;;11.33;8.20;;;3.20;99.90;;;;;;5029331;28;20306;-85
2022/11/06 02:07:14;;;;;;;8.77;7.53;;;3.20;99.90;;;;;;5032098;28;20194;-85
2022/11/06 02:09:40;;;;;;;10.47;7.63;;;3.10;99.90;;;;;;5016115;28;20175;-85
2022/11/06 02:12:43;;;;;;;9.60;7.73;;;3.10;99.90;;;;;;5034264;28;20210;-85
2022/11/06 02:15:12;;;;;;;7.93;6.50;;;3.10;99.90;;;;;;5034877;28;20198;-85
2022/11/06 02:18:11;;;;;;;7.27;6.20;;;3.10;99.90;;;;;;5017525;28;20694;-85
2022/11/06 02:20:59;;;;;;;7.23;6.03;;;3.10;99.90;;;;;;5018972;28;20174;-85
2022/11/06 02:24:00;;;;;;;10.47;7.40;;;3.00;99.90;;;;;;5018603;28;20210;-85
2022/11/06 02:26:55;;;;;;;9.67;6.63;;;3.00;99.90;;;;;;5018861;28;20163;-85
2022/11/06 02:29:33;;;;;;;10.80;7.23;;;3.00;99.90;;;;;;4999601;28;20190;-85
2022/11/06 02:32:08;;;;;;;9.93;7.30;;;3.00;99.90;;;;;;5016557;28;20187;-85
2022/11/06 02:34:37;;;;;;;12.73;6.97;;;3.00;99.90;;;;;;5003807;28;20335;-85
2022/11/06 02:37:10;;;;;;;13.90;7.63;;;3.00;99.90;;;;;;5034342;28;20225;-85
2022/11/06 02:39:39;;;;;;;9.63;7.27;;;3.00;99.90;;;;;;5017050;28;20174;-85
2022/11/06 02:42:11;;;;;;;10.83;7.50;;;3.00;99.90;;;;;;5018527;28;20182;-85
2022/11/06 02:44:39;;;;;;;15.97;7.33;;;3.00;99.90;;;;;;5034969;28;20206;-85
2022/11/06 02:47:08;;;;;;;13.23;8.73;;;3.10;99.90;;;;;;5034692;28;20190;-85
2022/11/06 02:49:41;;;;;;;34.37;9.03;;;3.10;99.90;;;;;;5018411;28;20273;-85
2022/11/06 02:52:18;;;;;;;277.47;21.27;;;3.20;99.90;;;;;;5017870;28;20221;-85
2022/11/06 02:54:51;;;;;;;14.70;7.10;;;3.00;99.90;;;;;;5018602;28;20231;-85
2022/11/06 02:57:20;;;;;;;75.50;9.80;;;3.00;99.90;;;;;;5017995;28;20180;-85
2022/11/06 03:00:22;;;;;;;49.63;11.67;;;3.00;99.90;;;;;;5034863;28;20177;-85
2022/11/06 03:03:05;;;;;;;68.07;11.57;;;3.00;99.90;;;;;;5014075;28;20193;-85
2022/11/06 03:05:31;;;;;;;28.17;9.23;;;3.00;99.90;;;;;;5034668;28;20194;-85
2022/11/06 03:08:06;;;;;;;16.67;9.03;;;3.00;99.90;;;;;;5051101;28;20185;-85
2022/11/06 03:11:01;;;;;;;57.73;11.63;;;3.10;99.90;;;;;;5034696;28;20158;-84
2022/11/06 03:13:53;;;;;;;28.83;9.13;;;3.10;99.90;;;;;;5008928;28;20238;-84
2022/11/06 03:16:18;;;;;;;8.40;6.83;;;3.20;99.90;;;;;;5035248;28;20202;-85
2022/11/06 03:18:59;;;;;;;9.90;5.97;;;3.10;99.90;;;;;;5034163;28;20214;-85
2022/11/06 03:21:35;;;;;;;19.90;7.73;;;3.10;99.90;;;;;;5034425;28;20253;-85
2022/11/06 03:24:18;;;;;;;36.47;8.13;;;3.10;99.90;;;;;;5034099;28;20260;-85
2022/11/06 03:26:51;;;;;;;28.90;7.70;;;3.00;99.90;;;;;;5034200;28;20178;-85
2022/11/06 03:29:37;;;;;;;39.90;9.17;;;3.00;99.90;;;;;;5034074;28;20171;-85
2022/11/06 03:32:27;;;;;;;30.57;8.33;;;3.00;99.90;;;;;;5017616;28;20217;-85
2022/11/06 03:35:01;;;;;;;21.60;7.17;;;3.10;99.90;;;;;;5017720;28;20230;-84
2022/11/06 03:37:37;;;;;;;16.00;7.87;;;3.10;99.90;;;;;;5033902;28;20178;-85
2022/11/06 03:40:08;;;;;;;19.97;8.93;;;3.10;99.90;;;;;;5034162;28;20264;-85
2022/11/06 03:42:37;;;;;;;13.57;8.43;;;3.20;99.90;;;;;;5034072;28;20166;-85
2022/11/06 03:45:13;;;;;;;63.27;9.77;;;3.10;99.90;;;;;;5033610;28;20201;-85
2022/11/06 03:47:47;;;;;;;14.83;7.80;;;3.10;99.90;;;;;;5033583;28;20181;-84
2022/11/06 03:50:26;;;;;;;14.43;7.77;;;3.10;99.90;;;;;;5033612;28;20187;-84
2022/11/06 03:53:02;;;;;;;9.73;6.43;;;3.10;99.90;;;;;;5033883;28;20214;-84
2022/11/06 03:55:33;;;;;;;7.57;6.30;;;3.20;99.90;;;;;;5033572;28;20269;-85
2022/11/06 03:58:15;;;;;;;15.43;6.00;;;3.10;99.90;;;;;;5033649;28;20174;-85
2022/11/06 04:00:42;;;;;;;10.50;6.70;;;3.10;99.90;;;;;;5033899;28;20324;-85
2022/11/06 04:03:24;;;;;;;14.60;6.73;;;3.10;99.90;;;;;;5050145;28;20233;-85
2022/11/06 04:06:03;;;;;;;10.87;6.47;;;3.10;99.90;;;;;;5034846;28;20179;-85
2022/11/06 04:14:22;;;;;;;45.13;7.17;;;3.20;99.90;;;;;;5028432;28;20278;-85
2022/11/06 04:16:53;;;;;;;18.63;7.23;;;3.20;99.90;;;;;;5013284;28;20183;-85
2022/11/06 04:19:21;;;;;;;8.47;5.97;;;3.10;99.90;;;;;;5035227;28;20261;-85
2022/11/06 04:22:12;;;;;;;76.50;9.17;;;3.10;99.90;;;;;;5016696;28;20186;-85
2022/11/06 04:27:44;;;;;;;30.73;7.17;;;3.00;99.90;;;;;;5033975;28;20279;-85
2022/11/06 04:30:13;;;;;;;24.50;5.80;;;3.00;99.90;;;;;;5016526;28;20167;-85
2022/11/06 04:32:48;;;;;;;14.93;5.60;;;2.90;99.90;;;;;;5016285;28;20203;-85
2022/11/06 04:35:14;;;;;;;9.57;5.47;;;2.80;99.90;;;;;;5031371;28;20173;-85
2022/11/06 04:38:17;;;;;;;29.57;6.80;;;2.80;99.90;;;;;;5013298;28;20187;-85
2022/11/06 04:41:01;;;;;;;13.80;6.33;;;2.80;99.90;;;;;;5016464;28;20179;-85
2022/11/06 04:43:41;;;;;;;10.17;6.10;;;2.80;99.90;;;;;;5016014;28;20212;-85
2022/11/06 04:46:10;;;;;;;7.27;5.33;;;2.90;99.90;;;;;;5016052;28;20265;-84
2022/11/06 04:48:37;;;;;;;8.77;5.30;;;2.90;99.90;;;;;;5032335;28;20186;-85
2022/11/06 04:51:07;;;;;;;10.50;6.67;;;2.90;99.90;;;;;;5016160;28;20216;-85
2022/11/06 04:53:34;;;;;;;20.67;6.93;;;2.90;99.90;;;;;;5015602;28;20214;-85
2022/11/06 04:56:08;;;;;;;9.13;6.03;;;2.90;99.90;;;;;;5015947;28;20221;-85
2022/11/06 04:58:34;;;;;;;42.23;7.90;;;2.90;99.90;;;;;;5015926;28;20167;-85
2022/11/06 05:00:59;;;;;;;8.17;5.63;;;2.90;99.90;;;;;;5016224;28;20248;-85
2022/11/06 05:03:25;;;;;;;8.83;5.00;;;2.80;99.90;;;;;;5015661;28;20221;-84
2022/11/06 05:05:51;;;;;;;7.80;5.53;;;2.90;99.90;;;;;;5015815;28;20213;-85
2022/11/06 05:08:19;;;;;;;10.70;5.70;;;2.90;99.90;;;;;;5031946;28;20211;-85
2022/11/06 05:10:46;;;;;;;36.83;6.60;;;2.90;99.90;;;;;;5048822;28;20257;-85
2022/11/06 05:13:13;;;;;;;23.93;5.90;;;2.70;99.90;;;;;;5031968;28;20210;-84
2022/11/06 05:15:39;;;;;;;8.37;5.40;;;2.70;99.90;;;;;;5032100;28;20179;-85
2022/11/06 05:18:06;;;;;;;20.57;6.00;;;2.60;99.90;;;;;;5048303;28;20171;-85
2022/11/06 05:20:32;;;;;;;14.50;5.70;;;2.50;99.90;;;;;;5032110;28;20201;-85
2022/11/06 05:23:02;;;;;;;17.07;6.43;;;2.20;99.90;;;;;;5031723;28;20201;-85
2022/11/06 05:25:39;;;;;;;7.37;5.53;;;2.10;99.90;;;;;;5031526;28;20189;-85
2022/11/06 05:28:06;;;;;;;6.97;5.63;;;2.10;99.90;;;;;;5031995;28;20184;-84
2022/11/06 05:30:34;;;;;;;7.53;6.00;;;2.20;99.90;;;;;;5032169;28;20204;-84
2022/11/06 05:33:00;;;;;;;17.70;6.40;;;2.40;99.90;;;;;;5031706;28;20210;-85
2022/11/06 05:35:26;;;;;;;9.90;6.17;;;2.40;99.90;;;;;;5032929;28;20189;-85
2022/11/06 05:37:58;;;;;;;8.10;6.40;;;2.50;99.90;;;;;;5031345;28;20175;-85
2022/11/06 05:40:24;;;;;;;14.83;6.17;;;2.60;99.90;;;;;;5031835;28;20174;-85
2022/11/06 05:42:50;;;;;;;7.40;6.13;;;2.70;99.90;;;;;;5031861;28;20185;-85
2022/11/06 05:45:15;;;;;;;7.17;5.20;;;2.70;99.90;;;;;;5014153;28;20186;-84
2022/11/06 05:47:41;;;;;;;9.17;5.73;;;2.80;99.90;;;;;;5014894;28;20188;-85
2022/11/06 05:50:09;;;;;;;6.47;5.40;;;2.80;99.90;;;;;;5015227;28;20194;-85
2022/11/06 05:52:35;;;;;;;6.17;5.47;;;2.80;99.90;;;;;;5015185;28;20217;-85
2022/11/06 05:55:29;;;;;;;7.73;5.10;;;2.90;99.90;;;;;;5015072;28;20191;-85
2022/11/06 05:57:56;;;;;;;6.50;5.30;;;2.80;99.90;;;;;;5014958;28;20202;-84
2022/11/06 06:01:04;;;;;;;7.77;5.50;;;2.80;99.90;;;;;;5015424;28;20179;-85
2022/11/06 06:03:29;;;;;;;6.10;5.13;;;2.80;99.90;;;;;;5031517;28;20194;-84
2022/11/06 06:05:55;;;;;;;10.80;5.63;;;2.80;99.90;;;;;;5015251;28;20240;-85
2022/11/06 06:08:21;;;;;;;6.13;4.93;;;2.80;99.90;;;;;;5047910;28;20205;-85
2022/11/06 06:10:47;;;;;;;6.33;5.07;;;2.80;99.90;;;;;;5014843;28;20191;-85
2022/11/06 06:13:14;;;;;;;6.00;4.40;;;2.80;99.90;;;;;;5015190;28;20214;-85
2022/11/06 06:15:41;;;;;;;6.33;5.10;;;2.90;99.90;;;;;;5016326;28;20257;-85
2022/11/06 06:18:08;;;;;;;10.00;4.60;;;2.80;99.90;;;;;;5014831;28;20265;-85
2022/11/06 06:20:34;;;;;;;5.00;3.90;;;2.80;99.90;;;;;;5014830;28;20175;-85
2022/11/06 06:23:01;;;;;;;7.13;4.40;;;2.70;99.90;;;;;;5014403;28;20228;-85
2022/11/06 06:25:27;;;;;;;5.13;4.40;;;2.70;99.90;;;;;;5014752;28;20186;-84
2022/11/06 06:27:54;;;;;;;11.43;6.80;;;2.80;99.90;;;;;;5014727;28;20206;-85
2022/11/06 06:30:21;;;;;;;6.47;4.40;;;2.70;99.90;;;;;;5015148;28;20183;-85
2022/11/06 06:32:48;;;;;;;6.50;4.60;;;2.70;99.90;;;;;;5014653;28;20213;-85
2022/11/06 06:35:16;;;;;;;8.23;4.87;;;2.60;99.90;;;;;;5014748;28;20242;-85
2022/11/06 06:37:49;;;;;;;5.83;5.03;;;2.70;99.90;;;;;;5016056;28;20192;-85
2022/11/06 06:40:15;;;;;;;9.90;5.10;;;2.60;99.90;;;;;;5018588;28;20241;-85
2022/11/06 06:42:41;;;;;;;9.27;6.13;;;2.70;99.90;;;;;;5018568;28;20183;-85
2022/11/06 06:45:07;;;;;;;7.17;5.10;;;2.70;99.90;;;;;;5018207;28;20595;-85
2022/11/06 06:47:33;;;;;;;11.23;5.53;;;2.80;99.90;;;;;;5034480;28;20186;-85
2022/11/06 06:49:58;;;;;;;5.70;4.93;;;2.80;99.90;;;;;;5018358;28;20262;-85
2022/11/06 06:52:24;;;;;;;7.90;5.27;;;2.80;99.90;;;;;;5032821;28;20204;-85
2022/11/06 06:54:50;;;;;;;10.57;5.47;;;2.90;99.90;;;;;;5054704;28;20190;-85
2022/11/06 06:57:16;;;;;;;19.27;6.60;;;2.90;99.90;;;;;;5037602;28;20181;-85
2022/11/06 06:59:42;;;;;;;14.23;5.67;;;2.90;99.90;;;;;;5037686;28;20190;-84
2022/11/06 07:02:12;;;;;;;15.93;6.23;;;2.90;99.90;;;;;;5037656;28;20186;-85
2022/11/06 07:04:38;;;;;;;33.00;9.47;;;2.90;99.90;;;;;;5032445;28;20316;-84
2022/11/06 07:07:04;;;;;;;12.33;5.03;;;3.00;99.90;;;;;;5034303;28;20183;-84
2022/11/06 07:09:30;;;;;;;7.93;5.30;;;3.00;99.90;;;;;;5034342;28;20182;-85
2022/11/06 07:11:57;;;;;;;7.90;5.50;;;3.00;99.90;;;;;;5034227;28;20211;-85
2022/11/06 07:14:22;;;;;;;15.17;6.17;;;3.00;99.90;;;;;;5034168;28;20194;-85
2022/11/06 07:16:48;;;;;;;7.13;5.67;;;3.00;99.90;;;;;;5033923;28;20533;-85
2022/11/06 07:19:14;;;;;;;17.90;6.57;;;3.10;99.90;;;;;;5050791;28;20208;-85
2022/11/06 07:21:40;;;;;;;7.30;5.33;;;3.10;99.90;;;;;;5033984;28;20179;-84
2022/11/06 07:24:06;;;;;;;16.27;7.17;;;3.10;99.90;;;;;;5017263;28;20214;-84
2022/11/06 07:26:32;;;;;;;9.03;5.63;;;3.10;99.90;;;;;;5017827;28;20189;-84
2022/11/06 07:28:58;;;;;;;12.10;5.90;;;3.10;99.90;;;;;;5017672;28;20171;-85
2022/11/06 07:31:24;;;;;;;7.87;5.23;;;3.10;99.90;;;;;;5033924;28;20179;-85
2022/11/06 07:33:49;;;;;;;19.27;7.07;;;3.10;99.90;;;;;;5017153;28;20242;-85
2022/11/06 07:36:15;;;;;;;16.97;6.97;;;3.10;99.90;;;;;;5035123;28;20182;-85
2022/11/06 07:38:42;;;;;;;32.00;7.43;;;3.20;99.90;;;;;;5033679;28;20178;-85
2022/11/06 07:41:11;;;;;;;36.00;9.33;;;3.10;99.90;;;;;;5033841;28;20273;-85
2022/11/06 07:43:38;;;;;;;13.87;7.57;;;3.10;99.90;;;;;;5033909;28;20202;-85
2022/11/06 07:46:07;;;;;;;37.27;9.17;;;3.10;99.90;;;;;;5033596;28;20193;-85
2022/11/06 07:48:33;;;;;;;16.17;6.67;;;3.20;99.90;;;;;;5033032;28;20237;-85
2022/11/06 07:51:02;;;;;;;9.93;6.03;;;3.20;99.90;;;;;;5033274;28;20228;-85
2022/11/06 07:53:28;;;;;;;19.30;6.80;;;3.20;99.90;;;;;;5033380;28;20224;-85
2022/11/06 07:55:55;;;;;;;25.93;7.50;;;3.20;99.90;;;;;;5033442;28;20269;-85
2022/11/06 07:58:22;;;;;;;9.10;6.50;;;3.30;99.90;;;;;;5033685;28;20185;-85
2022/11/06 08:00:56;;;;;;;15.80;6.63;;;3.30;99.90;;;;;;5033644;28;20174;-85
2022/11/06 08:03:23;;;;;;;32.67;8.27;;;3.30;99.90;;;;;;5033368;28;20213;-85
2022/11/06 08:05:49;;;;;;;13.50;7.03;;;3.40;99.90;;;;;;5033592;28;20197;-85
2022/11/06 08:08:15;;;;;;;56.33;9.30;;;3.40;99.90;;;;;;5032860;28;20635;-84
2022/11/06 08:10:46;;;;;;;37.50;8.70;;;3.40;99.90;;;;;;5017233;28;20178;-85
2022/11/06 08:13:14;;;;;;;50.57;8.00;;;3.30;99.90;;;;;;5016948;28;20221;-85
2022/11/06 08:15:41;;;;;;;45.63;10.20;;;3.40;99.90;;;;;;5032929;28;20242;-85
2022/11/06 08:18:08;;;;;;;13.23;5.43;;;3.40;99.90;;;;;;5016555;28;20177;-85
2022/11/06 08:20:35;;;;;;;14.47;5.50;;;3.50;99.90;;;;;;4997116;28;20233;-85
2022/11/06 08:23:02;;;;;;;16.27;6.27;;;3.50;99.90;;;;;;5020349;28;20236;-80
2022/11/06 08:25:29;;;;;;;11.50;6.53;;;3.40;99.90;;;;;;5034092;28;20285;-81
2022/11/06 08:27:57;;;;;;;40.67;7.63;;;3.50;99.90;;;;;;5016042;28;20182;-85
2022/11/06 08:30:23;;;;;;;7.87;6.67;;;3.50;99.90;;;;;;5016030;28;20182;-85
2022/11/06 08:32:49;;;;;;;13.60;6.87;;;3.50;99.90;;;;;;5015836;28;20202;-85
2022/11/06 08:35:15;;;;;;;29.47;6.90;;;3.50;99.90;;;;;;5015805;28;20185;-85
2022/11/06 08:37:41;;;;;;;30.53;8.43;;;3.50;99.90;;;;;;5032172;28;20248;-86
2022/11/06 08:40:07;;;;;;;104.27;10.13;;;3.40;99.90;;;;;;5032288;28;20270;-85
2022/11/06 08:42:33;;;;;;;17.70;5.90;;;3.40;99.90;;;;;;5015603;28;20171;-85
2022/11/06 08:44:59;;;;;;;14.07;5.63;;;3.40;99.90;;;;;;5015818;28;20209;-83
2022/11/06 08:47:25;;;;;;;26.87;5.93;;;3.50;99.90;;;;;;5033374;28;20534;-86
2022/11/06 08:49:51;;;;;;;17.23;5.80;;;3.50;99.90;;;;;;5032196;28;20179;-85
2022/11/06 08:52:17;;;;;;;13.23;6.13;;;3.60;99.90;;;;;;5031651;28;20249;-86
2022/11/06 08:54:43;;;;;;;18.20;5.67;;;3.60;99.90;;;;;;5003209;28;20199;-85
2022/11/06 08:57:09;;;;;;;5.67;4.77;;;3.60;99.90;;;;;;4997540;28;20202;-85
2022/11/06 08:59:35;;;;;;;10.73;5.90;;;3.70;99.90;;;;;;5015827;28;20183;-85
2022/11/06 09:02:01;;;;;;;5.27;4.77;;;3.70;99.90;;;;;;5016223;28;20186;-85
2022/11/06 09:04:29;;;;;;;12.87;4.63;;;3.70;99.90;;;;;;5006009;28;20203;-85
2022/11/06 09:06:58;;;;;;;7.33;5.70;;;3.80;99.90;;;;;;5032030;28;20182;-85
2022/11/06 09:09:30;;;;;;;10.77;6.60;;;3.90;99.90;;;;;;5015511;28;20179;-85
2022/11/06 09:11:58;;;;;;;7.73;4.93;;;4.00;99.90;;;;;;5014195;28;20178;-85
2022/11/06 09:14:24;;;;;;;6.60;4.87;;;4.10;99.90;;;;;;5011710;28;20196;-85
2022/11/06 09:16:52;;;;;;;7.70;5.20;;;4.20;99.90;;;;;;5010118;28;20190;-86
2022/11/06 09:19:27;;;;;;;7.13;5.80;;;4.20;99.90;;;;;;5032827;28;20261;-85
2022/11/06 09:21:54;;;;;;;8.30;6.37;;;4.30;99.90;;;;;;5014726;28;20193;-86
2022/11/06 09:24:20;;;;;;;6.27;5.23;;;4.30;99.90;;;;;;5015365;28;20202;-86
2022/11/06 09:26:46;;;;;;;9.57;6.50;;;4.30;99.90;;;;;;5031622;28;20207;-85
2022/11/06 09:29:12;;;;;;;13.73;9.13;;;4.40;99.90;;;;;;5006906;28;20210;-85
2022/11/06 09:31:38;;;;;;;24.17;14.60;;;4.40;99.90;;;;;;5015682;28;20269;-85
2022/11/06 09:34:04;;;;;;;13.70;8.07;;;4.40;99.90;;;;;;5031466;28;20218;-85
2022/11/06 09:36:29;;;;;;;20.33;10.50;;;4.50;99.90;;;;;;5031950;28;20189;-86
2022/11/06 09:38:56;;;;;;;22.90;11.57;;;4.50;99.90;;;;;;5015369;28;20206;-85
2022/11/06 09:41:27;;;;;;;13.97;8.80;;;4.60;99.90;;;;;;5015659;28;20271;-85
2022/11/06 09:44:24;;;;;;;7.83;5.93;;;4.60;99.90;;;;;;5020987;28;20199;-86
2022/11/06 09:46:50;;;;;;;9.37;6.20;;;4.70;99.90;;;;;;5022508;28;20177;-86
2022/11/06 09:49:52;;;;;;;9.67;6.80;;;4.70;99.90;;;;;;5032021;28;20163;-85
2022/11/06 09:52:43;;;;;;;11.80;10.60;;;4.80;99.90;;;;;;5044045;28;20206;-88
2022/11/06 09:55:21;;;;;;;6.50;5.50;;;4.60;99.90;;;;;;5022419;28;20246;-88
2022/11/06 09:58:00;;;;;;;6.17;5.43;;;4.70;99.90;;;;;;5015319;28;20173;-86
2022/11/06 10:00:26;;;;;;;5.63;4.90;;;4.70;99.90;;;;;;5015661;28;20172;-85
2022/11/06 10:03:30;;;;;;;7.83;5.50;;;4.80;99.90;;;;;;5012174;28;20216;-86
2022/11/06 10:05:56;;;;;;;8.60;6.60;;;4.80;99.90;;;;;;5035855;28;20194;-85
2022/11/06 10:08:24;;;;;;;7.23;6.07;;;4.80;99.90;;;;;;5015371;28;20224;-86
2022/11/06 10:11:04;;;;;;;7.63;6.23;;;4.80;99.90;;;;;;4996574;28;20177;-85
2022/11/06 10:13:57;;;;;;;7.97;6.23;;;4.90;99.90;;;;;;4998328;28;20214;-85
2022/11/06 10:16:54;;;;;;;6.87;5.97;;;5.00;99.90;;;;;;5011582;28;20211;-86
2022/11/06 10:19:39;;;;;;;7.90;6.90;;;5.10;99.90;;;;;;5004777;28;20180;-87
2022/11/06 10:22:07;;;;;;;8.43;6.33;;;5.10;99.90;;;;;;5030056;28;20190;-86
2022/11/06 10:24:42;;;;;;;9.63;6.63;;;5.10;99.90;;;;;;5018843;28;20206;-86
2022/11/06 10:27:25;;;;;;;7.73;6.43;;;5.20;99.90;;;;;;4999496;28;20179;-86
2022/11/06 10:30:02;;;;;;;8.10;5.93;;;5.30;99.90;;;;;;5030583;28;20190;-86
2022/11/06 10:33:03;;;;;;;7.13;5.57;;;5.30;99.90;;;;;;5035180;28;20199;-85
2022/11/06 10:36:01;;;;;;;6.53;5.83;;;5.40;99.90;;;;;;5015509;28;20202;-86
2022/11/06 10:38:32;;;;;;;6.50;5.60;;;5.40;99.90;;;;;;5017230;28;20182;-86
2022/11/06 10:41:00;;;;;;;8.57;6.87;;;5.50;99.90;;;;;;5013182;28;20250;-82
2022/11/06 10:43:26;;;;;;;7.57;6.27;;;5.50;99.90;;;;;;5001279;28;20208;-85
2022/11/06 10:46:28;;;;;;;7.87;5.93;;;5.50;99.90;;;;;;4998851;28;20179;-85
2022/11/06 10:48:59;;;;;;;7.07;5.60;;;5.40;99.90;;;;;;5012317;28;20245;-85
2022/11/06 10:51:57;;;;;;;7.73;6.60;;;5.50;99.90;;;;;;5023446;28;20182;-85
2022/11/06 10:54:52;;;;;;;8.43;6.83;;;5.60;99.90;;;;;;5008037;28;20198;-86
2022/11/06 10:57:36;;;;;;;9.20;7.07;;;5.90;99.90;;;;;;5053572;28;20188;-86
2022/11/06 11:00:04;;;;;;;9.00;7.33;;;6.00;99.90;;;;;;4999898;28;20223;-86
2022/11/06 11:02:36;;;;;;;8.23;7.30;;;6.20;99.90;;;;;;5014968;28;20276;-85
2022/11/06 11:05:12;;;;;;;8.20;6.80;;;6.30;99.90;;;;;;5027999;28;20299;-85
2022/11/06 11:07:38;;;;;;;6.83;6.13;;;6.40;99.90;;;;;;5034369;28;20219;-85
2022/11/06 11:10:22;;;;;;;11.30;7.30;;;6.50;99.90;;;;;;5034865;28;20183;-85
2022/11/06 11:12:51;;;;;;;9.03;7.50;;;6.50;99.90;;;;;;5034333;28;20335;-85
2022/11/06 11:15:19;;;;;;;8.80;7.43;;;6.50;99.90;;;;;;5014959;28;20177;-85
2022/11/06 11:18:10;;;;;;;7.10;6.37;;;6.50;99.90;;;;;;5014655;28;20227;-85
2022/11/06 11:20:45;;;;;;;7.57;6.67;;;6.60;99.90;;;;;;5015819;28;20192;-85
2022/11/06 11:23:27;;;;;;;10.17;7.20;;;6.50;99.90;;;;;;5033713;28;20209;-85
2022/11/06 11:26:16;;;;;;;8.13;6.47;;;6.70;99.90;;;;;;5013966;28;20177;-85
2022/11/06 11:28:54;;;;;;;7.77;6.30;;;6.70;99.90;;;;;;5016382;28;20182;-85
2022/11/06 11:31:32;;;;;;;7.40;6.20;;;6.80;99.90;;;;;;5010095;28;20212;-85
2022/11/06 11:34:02;;;;;;;8.07;7.27;;;6.80;99.90;;;;;;5033829;28;20212;-85
2022/11/06 11:37:00;;;;;;;8.00;7.00;;;6.90;99.90;;;;;;5027587;28;20197;-85
2022/11/06 11:39:32;;;;;;;10.23;8.30;;;6.90;99.90;;;;;;5016017;28;20278;-85
2022/11/06 11:42:31;;;;;;;9.13;7.53;;;7.10;99.90;;;;;;5015518;28;20262;-86
2022/11/06 11:45:21;;;;;;;8.80;7.70;;;7.20;99.90;;;;;;5022795;28;20236;-86
2022/11/06 11:48:03;;;;;;;9.47;8.30;;;7.20;99.90;;;;;;5032476;28;20185;-85
2022/11/06 11:50:32;;;;;;;9.07;7.10;;;7.30;99.90;;;;;;5012543;28;20185;-87
2022/11/06 11:53:02;;;;;;;8.40;7.50;;;7.40;99.90;;;;;;5021978;28;20689;-85
2022/11/06 11:55:29;;;;;;;8.70;7.80;;;7.50;99.90;;;;;;5017108;28;20229;-85
2022/11/06 11:58:05;;;;;;;9.77;8.77;;;7.50;99.90;;;;;;5018186;28;20204;-85
2022/11/06 12:00:33;;;;;;;10.03;8.63;;;7.60;99.90;;;;;;5034448;28;20174;-86
2022/11/06 12:03:10;;;;;;;8.37;7.27;;;7.70;99.90;;;;;;5024520;28;20719;-86
2022/11/06 12:05:40;;;;;;;9.27;8.23;;;7.90;99.90;;;;;;5043496;28;20189;-86
2022/11/06 12:08:21;;;;;;;9.60;7.20;;;8.00;99.90;;;;;;5024666;28;20185;-86
2022/11/06 12:10:52;;;;;;;8.67;6.57;;;7.90;99.90;;;;;;5054822;28;20204;-86
2022/11/06 12:13:28;;;;;;;7.37;6.60;;;8.10;99.90;;;;;;5040098;28;20222;-86
2022/11/06 12:16:19;;;;;;;8.47;7.07;;;8.20;99.90;;;;;;5021050;28;20259;-86
2022/11/06 12:18:50;;;;;;;7.90;7.10;;;8.40;99.90;;;;;;5038937;28;20195;-86
2022/11/06 12:21:44;;;;;;;9.07;7.67;;;8.50;99.90;;;;;;5027642;28;20194;-85
2022/11/06 12:24:21;;;;;;;8.87;7.97;;;8.50;99.90;;;;;;5034009;28;20218;-86
2022/11/06 12:26:50;;;;;;;9.10;8.10;;;8.40;99.90;;;;;;5028436;28;20174;-86
2022/11/06 12:29:55;;;;;;;9.43;8.43;;;8.50;99.90;;;;;;5041759;28;20178;-86
2022/11/06 12:32:50;;;;;;;9.60;8.33;;;8.40;99.90;;;;;;5049543;28;20251;-86
2022/11/06 12:35:30;;;;;;;8.40;7.03;;;8.40;99.90;;;;;;5007360;28;20221;-86
2022/11/06 12:38:27;;;;;;;7.63;6.50;;;8.50;99.90;;;;;;5018879;28;20325;-85
2022/11/06 12:41:00;;;;;;;8.47;7.43;;;8.50;99.90;;;;;;5031173;28;20178;-85
2022/11/06 12:43:32;;;;;;;6.97;5.93;;;8.60;99.90;;;;;;5038473;28;20205;-85
2022/11/06 12:46:17;;;;;;;6.53;5.87;;;8.60;99.90;;;;;;5022288;28;20269;-85
2022/11/06 12:49:07;;;;;;;6.10;5.20;;;8.70;99.90;;;;;;5016883;28;20183;-85
2022/11/06 12:51:38;;;;;;;5.87;5.20;;;8.90;99.90;;;;;;5032372;28;20191;-85
2022/11/06 12:54:24;;;;;;;5.13;4.63;;;9.00;99.90;;;;;;5043267;28;20210;-85
2022/11/06 12:57:15;;;;;;;5.83;4.27;;;9.10;99.90;;;;;;5032932;28;20224;-85
2022/11/06 13:00:08;;;;;;;5.37;4.50;;;9.30;99.90;;;;;;5023956;28;20207;-85
2022/11/06 13:03:09;;;;;;;4.90;4.40;;;9.40;99.90;;;;;;5035463;28;20193;-85
2022/11/06 13:06:09;;;;;;;4.93;4.20;;;9.40;99.90;;;;;;5020374;28;20181;-85
2022/11/06 13:08:44;;;;;;;5.17;4.60;;;9.50;99.90;;;;;;5019048;28;20277;-85
2022/11/06 13:11:19;;;;;;;5.70;5.10;;;9.60;99.90;;;;;;5025775;28;20270;-85
2022/11/06 13:13:54;;;;;;;5.83;5.10;;;9.60;99.90;;;;;;5034463;28;20289;-85
2022/11/06 13:17:01;;;;;;;5.13;4.57;;;9.60;99.90;;;;;;5011211;28;20199;-85
2022/11/06 13:19:43;;;;;;;6.30;5.17;;;9.60;99.90;;;;;;5025478;28;20191;-85
2022/11/06 13:22:34;;;;;;;4.73;4.23;;;9.60;99.90;;;;;;5037983;28;20209;-85
2022/11/06 13:25:25;;;;;;;6.03;4.70;;;9.60;99.90;;;;;;5041631;28;20270;-85
2022/11/06 13:27:56;;;;;;;5.40;4.87;;;9.50;99.90;;;;;;5020086;28;20171;-85
2022/11/06 13:30:23;;;;;;;5.87;5.20;;;9.50;99.90;;;;;;5042247;28;20198;-85
2022/11/06 13:33:07;;;;;;;5.60;5.10;;;9.50;99.90;;;;;;5033370;28;20209;-85